sensor_id;sensor_type;location;lat;lon;timestamp;P1;durP1;ratioP1;P2;durP2;ratioP2
16199;SDS011;8207;52.494;4.654;2023-02-21T00:00:47;37.77;;;12.87;;
16199;SDS011;8207;52.494;4.654;2023-02-21T00:03:32;47.50;;;14.53;;
16199;SDS011;8207;52.494;4.654;2023-02-21T00:06:16;40.10;;;14.20;;
16199;SDS011;8207;52.494;4.654;2023-02-21T00:09:02;35.17;;;13.40;;
16199;SDS011;8207;52.494;4.654;2023-02-21T00:11:46;34.87;;;13.53;;
16199;SDS011;8207;52.494;4.654;2023-02-21T00:14:31;35.80;;;13.30;;
16199;SDS011;8207;52.494;4.654;2023-02-21T00:17:15;36.73;;;13.50;;
16199;SDS011;8207;52.494;4.654;2023-02-21T00:19:59;41.13;;;15.87;;
16199;SDS011;8207;52.494;4.654;2023-02-21T00:22:43;35.87;;;17.53;;
16199;SDS011;8207;52.494;4.654;2023-02-21T00:25:29;40.00;;;15.87;;
16199;SDS011;8207;52.494;4.654;2023-02-21T00:28:14;37.60;;;15.87;;
16199;SDS011;8207;52.494;4.654;2023-02-21T00:30:58;40.87;;;17.90;;
16199;SDS011;8207;52.494;4.654;2023-02-21T00:33:42;34.30;;;15.97;;
16199;SDS011;8207;52.494;4.654;2023-02-21T00:36:26;40.87;;;16.63;;
16199;SDS011;8207;52.494;4.654;2023-02-21T00:39:10;40.43;;;16.60;;
16199;SDS011;8207;52.494;4.654;2023-02-21T00:41:56;38.77;;;16.03;;
16199;SDS011;8207;52.494;4.654;2023-02-21T00:44:40;41.37;;;18.30;;
16199;SDS011;8207;52.494;4.654;2023-02-21T00:47:25;42.03;;;18.43;;
16199;SDS011;8207;52.494;4.654;2023-02-21T00:50:09;40.33;;;18.30;;
16199;SDS011;8207;52.494;4.654;2023-02-21T00:52:53;40.50;;;16.53;;
16199;SDS011;8207;52.494;4.654;2023-02-21T00:55:38;37.63;;;15.97;;
16199;SDS011;8207;52.494;4.654;2023-02-21T00:58:23;34.07;;;16.17;;
16199;SDS011;8207;52.494;4.654;2023-02-21T01:01:07;37.43;;;14.90;;
16199;SDS011;8207;52.494;4.654;2023-02-21T01:03:52;39.77;;;17.07;;
16199;SDS011;8207;52.494;4.654;2023-02-21T01:06:36;41.47;;;18.37;;
16199;SDS011;8207;52.494;4.654;2023-02-21T01:09:20;44.60;;;18.17;;
16199;SDS011;8207;52.494;4.654;2023-02-21T01:12:04;42.53;;;16.87;;
16199;SDS011;8207;52.494;4.654;2023-02-21T01:14:50;44.33;;;19.00;;
16199;SDS011;8207;52.494;4.654;2023-02-21T01:17:34;39.13;;;17.03;;
16199;SDS011;8207;52.494;4.654;2023-02-21T01:20:18;39.33;;;19.07;;
16199;SDS011;8207;52.494;4.654;2023-02-21T01:23:03;39.07;;;20.17;;
16199;SDS011;8207;52.494;4.654;2023-02-21T01:25:47;39.73;;;18.87;;
16199;SDS011;8207;52.494;4.654;2023-02-21T01:28:31;41.57;;;19.70;;
16199;SDS011;8207;52.494;4.654;2023-02-21T01:31:17;44.47;;;19.67;;
16199;SDS011;8207;52.494;4.654;2023-02-21T01:34:02;43.07;;;19.40;;
16199;SDS011;8207;52.494;4.654;2023-02-21T01:36:47;40.70;;;19.70;;
16199;SDS011;8207;52.494;4.654;2023-02-21T01:39:32;37.73;;;17.63;;
16199;SDS011;8207;52.494;4.654;2023-02-21T01:42:16;42.13;;;19.23;;
16199;SDS011;8207;52.494;4.654;2023-02-21T01:48:26;34.40;;;19.70;;
16199;SDS011;8207;52.494;4.654;2023-02-21T01:51:13;55.60;;;19.70;;
16199;SDS011;8207;52.494;4.654;2023-02-21T01:54:00;36.43;;;17.73;;
16199;SDS011;8207;52.494;4.654;2023-02-21T01:56:46;34.90;;;16.77;;
16199;SDS011;8207;52.494;4.654;2023-02-21T01:59:31;38.33;;;19.57;;
16199;SDS011;8207;52.494;4.654;2023-02-21T02:02:17;32.37;;;17.40;;
16199;SDS011;8207;52.494;4.654;2023-02-21T02:05:12;47.13;;;22.30;;
16199;SDS011;8207;52.494;4.654;2023-02-21T02:07:56;43.57;;;21.40;;
16199;SDS011;8207;52.494;4.654;2023-02-21T02:10:41;42.70;;;22.07;;
16199;SDS011;8207;52.494;4.654;2023-02-21T02:16:28;38.47;;;21.13;;
16199;SDS011;8207;52.494;4.654;2023-02-21T02:22:29;48.03;;;23.10;;
16199;SDS011;8207;52.494;4.654;2023-02-21T02:25:14;43.00;;;22.73;;
16199;SDS011;8207;52.494;4.654;2023-02-21T02:30:51;39.47;;;24.40;;
16199;SDS011;8207;52.494;4.654;2023-02-21T02:36:47;38.33;;;22.70;;
16199;SDS011;8207;52.494;4.654;2023-02-21T02:39:18;37.17;;;21.63;;
16199;SDS011;8207;52.494;4.654;2023-02-21T02:41:56;31.70;;;20.37;;
16199;SDS011;8207;52.494;4.654;2023-02-21T02:44:33;39.10;;;21.37;;
16199;SDS011;8207;52.494;4.654;2023-02-21T02:47:04;31.70;;;20.33;;
16199;SDS011;8207;52.494;4.654;2023-02-21T02:49:37;38.37;;;21.93;;
16199;SDS011;8207;52.494;4.654;2023-02-21T02:52:08;36.37;;;20.67;;
16199;SDS011;8207;52.494;4.654;2023-02-21T02:54:35;34.13;;;19.80;;
16199;SDS011;8207;52.494;4.654;2023-02-21T02:57:03;35.17;;;20.80;;
16199;SDS011;8207;52.494;4.654;2023-02-21T02:59:34;32.33;;;19.93;;
16199;SDS011;8207;52.494;4.654;2023-02-21T03:05:09;45.57;;;26.37;;
16199;SDS011;8207;52.494;4.654;2023-02-21T03:08:03;44.97;;;24.40;;
16199;SDS011;8207;52.494;4.654;2023-02-21T03:10:40;44.07;;;23.60;;
16199;SDS011;8207;52.494;4.654;2023-02-21T03:13:11;43.40;;;23.40;;
16199;SDS011;8207;52.494;4.654;2023-02-21T03:15:44;45.40;;;22.03;;
16199;SDS011;8207;52.494;4.654;2023-02-21T03:18:16;35.80;;;20.60;;
16199;SDS011;8207;52.494;4.654;2023-02-21T03:20:51;33.50;;;20.23;;
16199;SDS011;8207;52.494;4.654;2023-02-21T03:23:22;42.90;;;21.90;;
16199;SDS011;8207;52.494;4.654;2023-02-21T03:25:53;32.17;;;20.30;;
16199;SDS011;8207;52.494;4.654;2023-02-21T03:28:21;42.37;;;21.90;;
16199;SDS011;8207;52.494;4.654;2023-02-21T03:30:50;36.73;;;21.17;;
16199;SDS011;8207;52.494;4.654;2023-02-21T03:33:20;47.37;;;25.80;;
16199;SDS011;8207;52.494;4.654;2023-02-21T03:35:47;48.20;;;24.60;;
16199;SDS011;8207;52.494;4.654;2023-02-21T03:38:16;48.90;;;24.53;;
16199;SDS011;8207;52.494;4.654;2023-02-21T03:40:43;34.77;;;21.53;;
16199;SDS011;8207;52.494;4.654;2023-02-21T03:43:10;31.33;;;20.63;;
16199;SDS011;8207;52.494;4.654;2023-02-21T03:45:37;33.87;;;21.30;;
16199;SDS011;8207;52.494;4.654;2023-02-21T03:48:04;30.27;;;21.30;;
16199;SDS011;8207;52.494;4.654;2023-02-21T03:50:31;31.03;;;20.53;;
16199;SDS011;8207;52.494;4.654;2023-02-21T03:52:58;36.93;;;20.63;;
16199;SDS011;8207;52.494;4.654;2023-02-21T03:55:26;31.73;;;20.03;;
16199;SDS011;8207;52.494;4.654;2023-02-21T03:57:53;38.97;;;19.80;;
16199;SDS011;8207;52.494;4.654;2023-02-21T04:00:21;33.10;;;20.50;;
16199;SDS011;8207;52.494;4.654;2023-02-21T04:02:47;32.03;;;21.07;;
16199;SDS011;8207;52.494;4.654;2023-02-21T04:05:14;34.50;;;20.53;;
16199;SDS011;8207;52.494;4.654;2023-02-21T04:07:42;31.60;;;19.70;;
16199;SDS011;8207;52.494;4.654;2023-02-21T04:10:09;34.17;;;20.40;;
16199;SDS011;8207;52.494;4.654;2023-02-21T04:12:37;28.00;;;19.13;;
16199;SDS011;8207;52.494;4.654;2023-02-21T04:15:04;32.37;;;19.43;;
16199;SDS011;8207;52.494;4.654;2023-02-21T04:17:31;28.93;;;20.33;;
16199;SDS011;8207;52.494;4.654;2023-02-21T04:19:58;41.73;;;21.40;;
16199;SDS011;8207;52.494;4.654;2023-02-21T04:22:25;29.63;;;20.10;;
16199;SDS011;8207;52.494;4.654;2023-02-21T04:24:52;35.40;;;20.07;;
16199;SDS011;8207;52.494;4.654;2023-02-21T04:27:19;29.40;;;20.57;;
16199;SDS011;8207;52.494;4.654;2023-02-21T04:29:48;30.07;;;19.60;;
16199;SDS011;8207;52.494;4.654;2023-02-21T04:32:15;31.43;;;20.37;;
16199;SDS011;8207;52.494;4.654;2023-02-21T04:34:42;29.43;;;20.50;;
16199;SDS011;8207;52.494;4.654;2023-02-21T04:37:08;37.07;;;21.93;;
16199;SDS011;8207;52.494;4.654;2023-02-21T04:39:35;40.47;;;23.40;;
16199;SDS011;8207;52.494;4.654;2023-02-21T04:42:02;34.63;;;22.40;;
16199;SDS011;8207;52.494;4.654;2023-02-21T04:44:29;37.47;;;22.63;;
16199;SDS011;8207;52.494;4.654;2023-02-21T04:46:58;44.27;;;25.63;;
16199;SDS011;8207;52.494;4.654;2023-02-21T04:49:24;48.80;;;26.50;;
16199;SDS011;8207;52.494;4.654;2023-02-21T04:51:51;47.30;;;26.67;;
16199;SDS011;8207;52.494;4.654;2023-02-21T04:54:18;44.60;;;24.73;;
16199;SDS011;8207;52.494;4.654;2023-02-21T04:56:46;55.87;;;28.00;;
16199;SDS011;8207;52.494;4.654;2023-02-21T04:59:12;49.77;;;26.17;;
16199;SDS011;8207;52.494;4.654;2023-02-21T05:01:39;46.93;;;25.90;;
16199;SDS011;8207;52.494;4.654;2023-02-21T05:04:08;42.13;;;24.03;;
16199;SDS011;8207;52.494;4.654;2023-02-21T05:06:35;50.23;;;26.63;;
16199;SDS011;8207;52.494;4.654;2023-02-21T05:09:02;64.00;;;31.73;;
16199;SDS011;8207;52.494;4.654;2023-02-21T05:11:31;51.77;;;30.37;;
16199;SDS011;8207;52.494;4.654;2023-02-21T05:13:59;49.40;;;26.93;;
16199;SDS011;8207;52.494;4.654;2023-02-21T05:16:27;46.53;;;26.23;;
16199;SDS011;8207;52.494;4.654;2023-02-21T05:18:53;43.87;;;24.47;;
16199;SDS011;8207;52.494;4.654;2023-02-21T05:21:22;45.23;;;23.97;;
16199;SDS011;8207;52.494;4.654;2023-02-21T05:23:49;47.57;;;25.33;;
16199;SDS011;8207;52.494;4.654;2023-02-21T05:26:22;40.30;;;24.50;;
16199;SDS011;8207;52.494;4.654;2023-02-21T05:28:53;46.80;;;27.03;;
16199;SDS011;8207;52.494;4.654;2023-02-21T05:31:20;41.43;;;24.57;;
16199;SDS011;8207;52.494;4.654;2023-02-21T05:33:47;47.07;;;26.17;;
16199;SDS011;8207;52.494;4.654;2023-02-21T05:36:14;39.50;;;23.47;;
16199;SDS011;8207;52.494;4.654;2023-02-21T05:38:47;40.57;;;24.83;;
16199;SDS011;8207;52.494;4.654;2023-02-21T05:41:16;47.07;;;25.10;;
16199;SDS011;8207;52.494;4.654;2023-02-21T05:43:43;48.17;;;27.10;;
16199;SDS011;8207;52.494;4.654;2023-02-21T05:46:16;43.67;;;25.87;;
16199;SDS011;8207;52.494;4.654;2023-02-21T05:48:44;38.50;;;25.30;;
16199;SDS011;8207;52.494;4.654;2023-02-21T05:51:11;45.03;;;28.43;;
16199;SDS011;8207;52.494;4.654;2023-02-21T05:53:38;43.03;;;28.27;;
16199;SDS011;8207;52.494;4.654;2023-02-21T05:56:07;42.77;;;27.50;;
16199;SDS011;8207;52.494;4.654;2023-02-21T05:58:34;41.67;;;28.47;;
16199;SDS011;8207;52.494;4.654;2023-02-21T06:01:01;40.30;;;27.40;;
16199;SDS011;8207;52.494;4.654;2023-02-21T06:03:28;38.60;;;26.80;;
16199;SDS011;8207;52.494;4.654;2023-02-21T06:05:55;40.43;;;26.13;;
16199;SDS011;8207;52.494;4.654;2023-02-21T06:08:22;38.57;;;28.07;;
16199;SDS011;8207;52.494;4.654;2023-02-21T06:10:49;38.33;;;26.13;;
16199;SDS011;8207;52.494;4.654;2023-02-21T06:13:18;45.20;;;29.30;;
16199;SDS011;8207;52.494;4.654;2023-02-21T06:15:45;49.80;;;27.63;;
16199;SDS011;8207;52.494;4.654;2023-02-21T06:18:12;43.47;;;27.23;;
16199;SDS011;8207;52.494;4.654;2023-02-21T06:20:39;46.03;;;28.87;;
16199;SDS011;8207;52.494;4.654;2023-02-21T06:23:06;41.93;;;25.80;;
16199;SDS011;8207;52.494;4.654;2023-02-21T06:25:33;42.43;;;27.70;;
16199;SDS011;8207;52.494;4.654;2023-02-21T06:28:00;35.97;;;26.77;;
16199;SDS011;8207;52.494;4.654;2023-02-21T06:30:28;47.30;;;29.40;;
16199;SDS011;8207;52.494;4.654;2023-02-21T06:32:55;43.77;;;27.37;;
16199;SDS011;8207;52.494;4.654;2023-02-21T06:35:22;39.03;;;26.70;;
16199;SDS011;8207;52.494;4.654;2023-02-21T06:37:49;37.60;;;26.17;;
16199;SDS011;8207;52.494;4.654;2023-02-21T06:40:16;45.30;;;29.07;;
16199;SDS011;8207;52.494;4.654;2023-02-21T06:42:43;40.90;;;27.33;;
16199;SDS011;8207;52.494;4.654;2023-02-21T06:45:10;46.70;;;28.57;;
16199;SDS011;8207;52.494;4.654;2023-02-21T06:47:38;46.37;;;28.20;;
16199;SDS011;8207;52.494;4.654;2023-02-21T06:50:05;43.13;;;28.10;;
16199;SDS011;8207;52.494;4.654;2023-02-21T06:52:33;44.67;;;28.20;;
16199;SDS011;8207;52.494;4.654;2023-02-21T06:54:59;49.70;;;30.97;;
16199;SDS011;8207;52.494;4.654;2023-02-21T06:57:26;47.90;;;30.73;;
16199;SDS011;8207;52.494;4.654;2023-02-21T06:59:53;47.73;;;30.10;;
16199;SDS011;8207;52.494;4.654;2023-02-21T07:02:20;46.67;;;28.13;;
16199;SDS011;8207;52.494;4.654;2023-02-21T07:04:48;51.40;;;30.47;;
16199;SDS011;8207;52.494;4.654;2023-02-21T07:07:15;47.57;;;28.80;;
16199;SDS011;8207;52.494;4.654;2023-02-21T07:09:42;50.03;;;29.80;;
16199;SDS011;8207;52.494;4.654;2023-02-21T07:12:09;48.07;;;29.37;;
16199;SDS011;8207;52.494;4.654;2023-02-21T07:14:36;49.33;;;30.50;;
16199;SDS011;8207;52.494;4.654;2023-02-21T07:17:03;52.60;;;31.10;;
16199;SDS011;8207;52.494;4.654;2023-02-21T07:19:30;51.77;;;29.70;;
16199;SDS011;8207;52.494;4.654;2023-02-21T07:21:59;48.47;;;29.63;;
16199;SDS011;8207;52.494;4.654;2023-02-21T07:24:25;49.60;;;30.23;;
16199;SDS011;8207;52.494;4.654;2023-02-21T07:26:52;48.27;;;30.93;;
16199;SDS011;8207;52.494;4.654;2023-02-21T07:29:20;44.20;;;29.23;;
16199;SDS011;8207;52.494;4.654;2023-02-21T07:31:47;48.60;;;29.33;;
16199;SDS011;8207;52.494;4.654;2023-02-21T07:34:15;41.63;;;27.60;;
16199;SDS011;8207;52.494;4.654;2023-02-21T07:36:43;42.40;;;27.43;;
16199;SDS011;8207;52.494;4.654;2023-02-21T07:39:12;44.27;;;28.17;;
16199;SDS011;8207;52.494;4.654;2023-02-21T07:41:39;40.60;;;27.67;;
16199;SDS011;8207;52.494;4.654;2023-02-21T07:44:05;47.60;;;29.17;;
16199;SDS011;8207;52.494;4.654;2023-02-21T07:46:33;50.53;;;30.43;;
16199;SDS011;8207;52.494;4.654;2023-02-21T07:49:00;51.80;;;30.43;;
16199;SDS011;8207;52.494;4.654;2023-02-21T07:51:27;41.93;;;27.63;;
16199;SDS011;8207;52.494;4.654;2023-02-21T07:53:54;48.17;;;30.00;;
16199;SDS011;8207;52.494;4.654;2023-02-21T07:56:23;46.00;;;29.23;;
16199;SDS011;8207;52.494;4.654;2023-02-21T07:58:50;49.90;;;30.80;;
16199;SDS011;8207;52.494;4.654;2023-02-21T08:01:20;42.83;;;27.73;;
16199;SDS011;8207;52.494;4.654;2023-02-21T08:03:48;44.37;;;28.77;;
16199;SDS011;8207;52.494;4.654;2023-02-21T08:06:15;43.10;;;28.23;;
16199;SDS011;8207;52.494;4.654;2023-02-21T08:08:42;39.83;;;27.37;;
16199;SDS011;8207;52.494;4.654;2023-02-21T08:11:09;43.20;;;27.00;;
16199;SDS011;8207;52.494;4.654;2023-02-21T08:13:37;37.77;;;26.93;;
16199;SDS011;8207;52.494;4.654;2023-02-21T08:16:05;41.97;;;28.13;;
16199;SDS011;8207;52.494;4.654;2023-02-21T08:18:32;36.83;;;26.07;;
16199;SDS011;8207;52.494;4.654;2023-02-21T08:20:59;35.50;;;25.97;;
16199;SDS011;8207;52.494;4.654;2023-02-21T08:23:26;38.70;;;25.50;;
16199;SDS011;8207;52.494;4.654;2023-02-21T08:25:53;45.10;;;29.73;;
16199;SDS011;8207;52.494;4.654;2023-02-21T08:28:19;49.07;;;28.83;;
16199;SDS011;8207;52.494;4.654;2023-02-21T08:30:48;44.93;;;28.77;;
16199;SDS011;8207;52.494;4.654;2023-02-21T08:33:15;40.87;;;28.23;;
16199;SDS011;8207;52.494;4.654;2023-02-21T08:35:42;41.00;;;26.60;;
16199;SDS011;8207;52.494;4.654;2023-02-21T08:38:09;46.53;;;27.77;;
16199;SDS011;8207;52.494;4.654;2023-02-21T08:40:36;46.23;;;27.20;;
16199;SDS011;8207;52.494;4.654;2023-02-21T08:43:03;37.97;;;25.93;;
16199;SDS011;8207;52.494;4.654;2023-02-21T08:45:30;40.93;;;27.10;;
16199;SDS011;8207;52.494;4.654;2023-02-21T08:48:00;36.70;;;24.27;;
16199;SDS011;8207;52.494;4.654;2023-02-21T08:50:27;43.13;;;26.53;;
16199;SDS011;8207;52.494;4.654;2023-02-21T08:52:55;40.40;;;27.30;;
16199;SDS011;8207;52.494;4.654;2023-02-21T08:55:22;41.27;;;26.93;;
16199;SDS011;8207;52.494;4.654;2023-02-21T08:57:50;36.90;;;25.10;;
16199;SDS011;8207;52.494;4.654;2023-02-21T09:00:18;35.13;;;25.33;;
16199;SDS011;8207;52.494;4.654;2023-02-21T09:02:47;32.90;;;22.93;;
16199;SDS011;8207;52.494;4.654;2023-02-21T09:05:17;32.17;;;23.83;;
16199;SDS011;8207;52.494;4.654;2023-02-21T09:07:48;36.43;;;24.67;;
16199;SDS011;8207;52.494;4.654;2023-02-21T09:10:19;33.57;;;23.13;;
16199;SDS011;8207;52.494;4.654;2023-02-21T09:12:46;34.97;;;24.40;;
16199;SDS011;8207;52.494;4.654;2023-02-21T09:15:13;38.27;;;25.07;;
16199;SDS011;8207;52.494;4.654;2023-02-21T09:17:41;34.67;;;23.70;;
16199;SDS011;8207;52.494;4.654;2023-02-21T09:20:10;30.93;;;21.07;;
16199;SDS011;8207;52.494;4.654;2023-02-21T09:22:43;38.63;;;23.63;;
16199;SDS011;8207;52.494;4.654;2023-02-21T09:25:10;37.27;;;25.23;;
16199;SDS011;8207;52.494;4.654;2023-02-21T09:27:38;31.57;;;22.40;;
16199;SDS011;8207;52.494;4.654;2023-02-21T09:30:06;36.03;;;23.27;;
16199;SDS011;8207;52.494;4.654;2023-02-21T09:32:34;36.10;;;22.47;;
16199;SDS011;8207;52.494;4.654;2023-02-21T09:35:02;34.97;;;22.20;;
16199;SDS011;8207;52.494;4.654;2023-02-21T09:37:29;34.23;;;22.73;;
16199;SDS011;8207;52.494;4.654;2023-02-21T09:39:58;32.70;;;21.30;;
16199;SDS011;8207;52.494;4.654;2023-02-21T09:42:27;30.73;;;21.17;;
16199;SDS011;8207;52.494;4.654;2023-02-21T09:44:56;35.43;;;22.93;;
16199;SDS011;8207;52.494;4.654;2023-02-21T09:47:25;32.87;;;22.30;;
16199;SDS011;8207;52.494;4.654;2023-02-21T09:49:56;31.70;;;21.57;;
16199;SDS011;8207;52.494;4.654;2023-02-21T09:52:28;29.70;;;20.90;;
16199;SDS011;8207;52.494;4.654;2023-02-21T09:55:00;29.00;;;18.80;;
16199;SDS011;8207;52.494;4.654;2023-02-21T09:57:33;30.13;;;20.80;;
16199;SDS011;8207;52.494;4.654;2023-02-21T10:00:00;33.07;;;21.03;;
16199;SDS011;8207;52.494;4.654;2023-02-21T10:02:35;32.07;;;21.30;;
16199;SDS011;8207;52.494;4.654;2023-02-21T10:05:12;26.77;;;19.80;;
16199;SDS011;8207;52.494;4.654;2023-02-21T10:07:46;30.47;;;20.20;;
16199;SDS011;8207;52.494;4.654;2023-02-21T10:10:25;33.27;;;21.50;;
16199;SDS011;8207;52.494;4.654;2023-02-21T10:12:57;29.53;;;20.63;;
16199;SDS011;8207;52.494;4.654;2023-02-21T10:15:34;29.27;;;19.80;;
16199;SDS011;8207;52.494;4.654;2023-02-21T10:18:06;31.10;;;19.90;;
16199;SDS011;8207;52.494;4.654;2023-02-21T10:20:41;25.90;;;19.20;;
16199;SDS011;8207;52.494;4.654;2023-02-21T10:23:13;26.63;;;18.23;;
16199;SDS011;8207;52.494;4.654;2023-02-21T10:25:44;32.27;;;21.53;;
16199;SDS011;8207;52.494;4.654;2023-02-21T10:28:14;34.57;;;21.47;;
16199;SDS011;8207;52.494;4.654;2023-02-21T10:30:44;34.80;;;21.10;;
16199;SDS011;8207;52.494;4.654;2023-02-21T10:33:12;28.10;;;18.67;;
16199;SDS011;8207;52.494;4.654;2023-02-21T10:35:39;31.20;;;19.83;;
16199;SDS011;8207;52.494;4.654;2023-02-21T10:38:06;26.93;;;18.53;;
16199;SDS011;8207;52.494;4.654;2023-02-21T10:40:35;23.57;;;18.30;;
16199;SDS011;8207;52.494;4.654;2023-02-21T10:43:08;28.37;;;20.30;;
16199;SDS011;8207;52.494;4.654;2023-02-21T10:45:39;28.90;;;18.03;;
16199;SDS011;8207;52.494;4.654;2023-02-21T10:48:10;28.03;;;17.60;;
16199;SDS011;8207;52.494;4.654;2023-02-21T10:50:40;26.37;;;18.30;;
16199;SDS011;8207;52.494;4.654;2023-02-21T10:53:22;23.10;;;16.67;;
16199;SDS011;8207;52.494;4.654;2023-02-21T10:56:07;23.07;;;16.57;;
16199;SDS011;8207;52.494;4.654;2023-02-21T10:58:50;25.60;;;17.53;;
16199;SDS011;8207;52.494;4.654;2023-02-21T11:01:20;23.57;;;16.87;;
16199;SDS011;8207;52.494;4.654;2023-02-21T11:03:56;28.33;;;18.60;;
16199;SDS011;8207;52.494;4.654;2023-02-21T11:06:27;23.13;;;16.67;;
16199;SDS011;8207;52.494;4.654;2023-02-21T11:08:59;22.97;;;16.80;;
16199;SDS011;8207;52.494;4.654;2023-02-21T11:11:34;18.83;;;14.63;;
16199;SDS011;8207;52.494;4.654;2023-02-21T11:17:03;23.23;;;17.47;;
16199;SDS011;8207;52.494;4.654;2023-02-21T11:19:45;18.57;;;15.53;;
16199;SDS011;8207;52.494;4.654;2023-02-21T11:22:14;27.13;;;19.63;;
16199;SDS011;8207;52.494;4.654;2023-02-21T11:24:48;22.17;;;17.67;;
16199;SDS011;8207;52.494;4.654;2023-02-21T11:27:22;23.60;;;17.33;;
16199;SDS011;8207;52.494;4.654;2023-02-21T11:29:51;21.67;;;16.53;;
16199;SDS011;8207;52.494;4.654;2023-02-21T11:32:23;23.37;;;17.87;;
16199;SDS011;8207;52.494;4.654;2023-02-21T11:34:59;22.97;;;17.73;;
16199;SDS011;8207;52.494;4.654;2023-02-21T11:37:28;24.50;;;18.37;;
16199;SDS011;8207;52.494;4.654;2023-02-21T11:39:56;27.63;;;19.23;;
16199;SDS011;8207;52.494;4.654;2023-02-21T11:42:26;23.70;;;18.43;;
16199;SDS011;8207;52.494;4.654;2023-02-21T11:45:12;17.40;;;15.10;;
16199;SDS011;8207;52.494;4.654;2023-02-21T11:47:47;22.50;;;18.20;;
16199;SDS011;8207;52.494;4.654;2023-02-21T11:50:20;23.37;;;18.00;;
16199;SDS011;8207;52.494;4.654;2023-02-21T11:52:53;18.83;;;15.93;;
16199;SDS011;8207;52.494;4.654;2023-02-21T11:55:29;22.00;;;17.60;;
16199;SDS011;8207;52.494;4.654;2023-02-21T11:58:00;23.77;;;19.07;;
16199;SDS011;8207;52.494;4.654;2023-02-21T12:00:36;21.30;;;17.53;;
16199;SDS011;8207;52.494;4.654;2023-02-21T12:03:25;19.47;;;17.47;;
16199;SDS011;8207;52.494;4.654;2023-02-21T12:06:10;22.93;;;17.73;;
16199;SDS011;8207;52.494;4.654;2023-02-21T12:08:43;27.20;;;19.77;;
16199;SDS011;8207;52.494;4.654;2023-02-21T12:11:15;25.63;;;18.70;;
16199;SDS011;8207;52.494;4.654;2023-02-21T12:13:56;20.73;;;16.73;;
16199;SDS011;8207;52.494;4.654;2023-02-21T12:16:36;21.37;;;15.90;;
16199;SDS011;8207;52.494;4.654;2023-02-21T12:19:19;26.13;;;19.27;;
16199;SDS011;8207;52.494;4.654;2023-02-21T12:22:05;21.57;;;17.93;;
16199;SDS011;8207;52.494;4.654;2023-02-21T12:24:43;22.03;;;18.20;;
16199;SDS011;8207;52.494;4.654;2023-02-21T12:27:23;17.97;;;16.07;;
16199;SDS011;8207;52.494;4.654;2023-02-21T12:30:09;26.00;;;19.53;;
16199;SDS011;8207;52.494;4.654;2023-02-21T12:32:49;22.70;;;17.70;;
16199;SDS011;8207;52.494;4.654;2023-02-21T12:35:33;24.13;;;20.00;;
16199;SDS011;8207;52.494;4.654;2023-02-21T12:38:13;31.70;;;20.43;;
16199;SDS011;8207;52.494;4.654;2023-02-21T12:40:55;24.67;;;18.80;;
16199;SDS011;8207;52.494;4.654;2023-02-21T12:43:36;25.73;;;20.97;;
16199;SDS011;8207;52.494;4.654;2023-02-21T12:46:15;25.03;;;19.77;;
16199;SDS011;8207;52.494;4.654;2023-02-21T12:48:50;26.13;;;20.40;;
16199;SDS011;8207;52.494;4.654;2023-02-21T12:51:24;24.47;;;19.17;;
16199;SDS011;8207;52.494;4.654;2023-02-21T12:53:54;24.90;;;20.00;;
16199;SDS011;8207;52.494;4.654;2023-02-21T12:56:26;23.13;;;20.73;;
16199;SDS011;8207;52.494;4.654;2023-02-21T12:58:58;22.93;;;19.37;;
16199;SDS011;8207;52.494;4.654;2023-02-21T13:01:30;24.40;;;19.90;;
16199;SDS011;8207;52.494;4.654;2023-02-21T13:04:08;25.97;;;20.40;;
16199;SDS011;8207;52.494;4.654;2023-02-21T13:06:44;24.13;;;19.03;;
16199;SDS011;8207;52.494;4.654;2023-02-21T13:09:16;23.27;;;17.87;;
16199;SDS011;8207;52.494;4.654;2023-02-21T13:11:54;27.97;;;21.00;;
16199;SDS011;8207;52.494;4.654;2023-02-21T13:14:26;26.00;;;20.23;;
16199;SDS011;8207;52.494;4.654;2023-02-21T13:16:57;23.33;;;19.13;;
16199;SDS011;8207;52.494;4.654;2023-02-21T13:19:25;27.53;;;20.47;;
16199;SDS011;8207;52.494;4.654;2023-02-21T13:25:15;29.97;;;23.87;;
16199;SDS011;8207;52.494;4.654;2023-02-21T13:27:52;34.07;;;22.90;;
16199;SDS011;8207;52.494;4.654;2023-02-21T13:30:22;27.20;;;21.47;;
16199;SDS011;8207;52.494;4.654;2023-02-21T13:32:54;30.60;;;24.07;;
16199;SDS011;8207;52.494;4.654;2023-02-21T13:35:30;27.83;;;21.27;;
16199;SDS011;8207;52.494;4.654;2023-02-21T13:37:59;26.33;;;20.63;;
16199;SDS011;8207;52.494;4.654;2023-02-21T13:40:32;27.83;;;21.90;;
16199;SDS011;8207;52.494;4.654;2023-02-21T13:43:02;25.77;;;21.90;;
16199;SDS011;8207;52.494;4.654;2023-02-21T13:45:31;28.43;;;20.40;;
16199;SDS011;8207;52.494;4.654;2023-02-21T13:50:58;29.57;;;21.63;;
16199;SDS011;8207;52.494;4.654;2023-02-21T13:53:27;27.27;;;20.70;;
16199;SDS011;8207;52.494;4.654;2023-02-21T13:58:44;26.10;;;20.20;;
16199;SDS011;8207;52.494;4.654;2023-02-21T14:07:16;26.00;;;19.23;;
16199;SDS011;8207;52.494;4.654;2023-02-21T14:10:02;28.90;;;21.13;;
16199;SDS011;8207;52.494;4.654;2023-02-21T14:12:30;28.07;;;21.10;;
16199;SDS011;8207;52.494;4.654;2023-02-21T14:15:02;28.53;;;21.77;;
16199;SDS011;8207;52.494;4.654;2023-02-21T14:17:31;28.17;;;20.70;;
16199;SDS011;8207;52.494;4.654;2023-02-21T14:19:58;26.57;;;20.60;;
16199;SDS011;8207;52.494;4.654;2023-02-21T14:22:28;30.03;;;21.17;;
16199;SDS011;8207;52.494;4.654;2023-02-21T14:25:02;27.47;;;20.10;;
16199;SDS011;8207;52.494;4.654;2023-02-21T14:27:37;30.43;;;22.83;;
16199;SDS011;8207;52.494;4.654;2023-02-21T14:30:14;29.00;;;22.20;;
16199;SDS011;8207;52.494;4.654;2023-02-21T14:33:07;27.13;;;21.03;;
16199;SDS011;8207;52.494;4.654;2023-02-21T14:35:44;32.00;;;23.57;;
16199;SDS011;8207;52.494;4.654;2023-02-21T14:38:19;33.07;;;22.87;;
16199;SDS011;8207;52.494;4.654;2023-02-21T14:40:53;30.50;;;22.03;;
16199;SDS011;8207;52.494;4.654;2023-02-21T14:43:31;31.33;;;21.23;;
16199;SDS011;8207;52.494;4.654;2023-02-21T14:46:17;28.17;;;19.47;;
16199;SDS011;8207;52.494;4.654;2023-02-21T14:49:00;29.13;;;20.07;;
16199;SDS011;8207;52.494;4.654;2023-02-21T14:51:51;32.93;;;22.60;;
16199;SDS011;8207;52.494;4.654;2023-02-21T15:00:45;28.83;;;19.07;;
16199;SDS011;8207;52.494;4.654;2023-02-21T15:03:24;32.67;;;21.87;;
16199;SDS011;8207;52.494;4.654;2023-02-21T15:05:59;29.47;;;18.53;;
16199;SDS011;8207;52.494;4.654;2023-02-21T15:08:38;26.10;;;17.50;;
16199;SDS011;8207;52.494;4.654;2023-02-21T15:11:13;26.50;;;17.93;;
16199;SDS011;8207;52.494;4.654;2023-02-21T15:13:46;28.67;;;18.20;;
16199;SDS011;8207;52.494;4.654;2023-02-21T15:16:13;27.43;;;18.20;;
16199;SDS011;8207;52.494;4.654;2023-02-21T15:18:54;28.03;;;18.10;;
16199;SDS011;8207;52.494;4.654;2023-02-21T15:21:23;31.70;;;18.23;;
16199;SDS011;8207;52.494;4.654;2023-02-21T15:24:00;22.67;;;16.07;;
16199;SDS011;8207;52.494;4.654;2023-02-21T15:26:34;24.33;;;15.43;;
16199;SDS011;8207;52.494;4.654;2023-02-21T15:29:05;24.07;;;15.70;;
16199;SDS011;8207;52.494;4.654;2023-02-21T15:31:34;17.67;;;12.83;;
16199;SDS011;8207;52.494;4.654;2023-02-21T15:34:11;20.57;;;13.70;;
16199;SDS011;8207;52.494;4.654;2023-02-21T15:36:42;18.57;;;13.30;;
16199;SDS011;8207;52.494;4.654;2023-02-21T15:39:11;20.20;;;13.33;;
16199;SDS011;8207;52.494;4.654;2023-02-21T15:41:45;25.47;;;15.27;;
16199;SDS011;8207;52.494;4.654;2023-02-21T15:44:17;20.37;;;13.17;;
16199;SDS011;8207;52.494;4.654;2023-02-21T15:46:49;21.70;;;13.27;;
16199;SDS011;8207;52.494;4.654;2023-02-21T15:49:21;19.03;;;12.83;;